sensor_id;sensor_type;location;lat;lon;timestamp;pressure;altitude;pressure_sealevel;temperature;humidity
59873;BME280;50750;51.636;4.948;2022-12-18T00:01:04;102953.30;;;6.15;56.74
59873;BME280;50750;51.636;4.948;2022-12-18T00:03:42;102953.98;;;6.14;56.80
59873;BME280;50750;51.636;4.948;2022-12-18T00:06:09;102961.29;;;6.15;56.68
59873;BME280;50750;51.636;4.948;2022-12-18T00:08:35;102951.19;;;6.14;56.66
59873;BME280;50750;51.636;4.948;2022-12-18T00:11:08;102948.58;;;6.14;56.66
59873;BME280;50750;51.636;4.948;2022-12-18T00:13:34;102944.23;;;6.14;56.59
59873;BME280;50750;51.636;4.948;2022-12-18T00:16:02;102943.36;;;6.13;56.81
59873;BME280;50750;51.636;4.948;2022-12-18T00:18:29;102940.75;;;6.13;56.76
59873;BME280;50750;51.636;4.948;2022-12-18T00:20:59;102936.23;;;6.14;56.70
59873;BME280;50750;51.636;4.948;2022-12-18T00:23:26;102933.27;;;6.13;56.71
59873;BME280;50750;51.636;4.948;2022-12-18T00:25:52;102927.86;;;6.13;56.56
59873;BME280;50750;51.636;4.948;2022-12-18T00:28:18;102929.07;;;6.13;56.79
59873;BME280;50750;51.636;4.948;2022-12-18T00:30:44;102923.30;;;6.12;56.66
59873;BME280;50750;51.636;4.948;2022-12-18T00:33:10;102918.11;;;6.12;56.63
59873;BME280;50750;51.636;4.948;2022-12-18T00:35:36;102917.74;;;6.12;56.58
59873;BME280;50750;51.636;4.948;2022-12-18T00:38:02;102921.05;;;6.12;56.62
59873;BME280;50750;51.636;4.948;2022-12-18T00:40:28;102927.31;;;6.12;56.74
59873;BME280;50750;51.636;4.948;2022-12-18T00:42:54;102925.22;;;6.12;56.61
59873;BME280;50750;51.636;4.948;2022-12-18T00:45:27;102915.84;;;6.11;56.54
59873;BME280;50750;51.636;4.948;2022-12-18T00:47:55;102903.83;;;6.11;56.70
59873;BME280;50750;51.636;4.948;2022-12-18T00:50:23;102905.91;;;6.11;56.64
59873;BME280;50750;51.636;4.948;2022-12-18T00:52:49;102910.09;;;6.11;56.50
59873;BME280;50750;51.636;4.948;2022-12-18T00:55:16;102908.35;;;6.11;56.61
59873;BME280;50750;51.636;4.948;2022-12-18T00:57:42;102906.25;;;6.11;56.59
59873;BME280;50750;51.636;4.948;2022-12-18T01:00:16;102905.39;;;6.11;56.56
59873;BME280;50750;51.636;4.948;2022-12-18T01:02:42;102908.86;;;6.11;56.53
59873;BME280;50750;51.636;4.948;2022-12-18T01:05:12;102915.29;;;6.10;56.40
59873;BME280;50750;51.636;4.948;2022-12-18T01:07:38;102921.55;;;6.10;56.31
59873;BME280;50750;51.636;4.948;2022-12-18T01:10:09;102926.58;;;6.10;56.43
59873;BME280;50750;51.636;4.948;2022-12-18T01:12:40;102929.37;;;6.10;56.40
59873;BME280;50750;51.636;4.948;2022-12-18T01:15:16;102929.36;;;6.10;56.48
59873;BME280;50750;51.636;4.948;2022-12-18T01:17:43;102925.17;;;6.10;56.43
59873;BME280;50750;51.636;4.948;2022-12-18T01:20:10;102925.69;;;6.09;56.46
59873;BME280;50750;51.636;4.948;2022-12-18T01:22:36;102924.11;;;6.09;56.62
59873;BME280;50750;51.636;4.948;2022-12-18T01:25:04;102919.42;;;6.09;56.46
59873;BME280;50750;51.636;4.948;2022-12-18T01:27:30;102916.98;;;6.09;56.39
59873;BME280;50750;51.636;4.948;2022-12-18T01:29:56;102914.20;;;6.09;56.27
59873;BME280;50750;51.636;4.948;2022-12-18T01:32:22;102916.81;;;6.09;56.46
59873;BME280;50750;51.636;4.948;2022-12-18T01:34:48;102924.46;;;6.08;56.43
59873;BME280;50750;51.636;4.948;2022-12-18T01:37:14;102928.81;;;6.08;56.37
59873;BME280;50750;51.636;4.948;2022-12-18T01:39:40;102923.05;;;6.07;56.52
59873;BME280;50750;51.636;4.948;2022-12-18T01:42:12;102920.45;;;6.07;56.50
59873;BME280;50750;51.636;4.948;2022-12-18T01:53:00;102917.27;;;6.06;56.44
59873;BME280;50750;51.636;4.948;2022-12-18T01:55:37;102913.63;;;6.06;56.47
59873;BME280;50750;51.636;4.948;2022-12-18T01:58:06;102915.17;;;6.05;56.46
59873;BME280;50750;51.636;4.948;2022-12-18T02:00:33;102916.58;;;6.05;56.40
59873;BME280;50750;51.636;4.948;2022-12-18T02:03:00;102919.88;;;6.05;56.33
59873;BME280;50750;51.636;4.948;2022-12-18T02:08:22;102919.70;;;6.05;56.43
59873;BME280;50750;51.636;4.948;2022-12-18T02:14:04;102924.38;;;6.05;56.37
59873;BME280;50750;51.636;4.948;2022-12-18T02:16:47;102921.41;;;6.04;56.28
59873;BME280;50750;51.636;4.948;2022-12-18T02:22:18;102920.18;;;6.04;56.29
59873;BME280;50750;51.636;4.948;2022-12-18T02:27:38;102908.70;;;6.03;56.36
59873;BME280;50750;51.636;4.948;2022-12-18T02:30:07;102904.69;;;6.03;56.18
59873;BME280;50750;51.636;4.948;2022-12-18T02:32:42;102904.35;;;6.03;56.23
59873;BME280;50750;51.636;4.948;2022-12-18T02:35:16;102907.11;;;6.03;56.34
59873;BME280;50750;51.636;4.948;2022-12-18T02:37:44;102905.19;;;6.03;56.24
59873;BME280;50750;51.636;4.948;2022-12-18T02:40:12;102899.98;;;6.02;56.16
59873;BME280;50750;51.636;4.948;2022-12-18T02:42:39;102898.59;;;6.02;56.22
59873;BME280;50750;51.636;4.948;2022-12-18T02:45:06;102895.64;;;6.03;56.12
59873;BME280;50750;51.636;4.948;2022-12-18T02:47:34;102890.05;;;6.02;56.08
59873;BME280;50750;51.636;4.948;2022-12-18T02:57:56;102887.27;;;6.02;56.18
59873;BME280;50750;51.636;4.948;2022-12-18T03:00:43;102879.61;;;6.01;56.08
59873;BME280;50750;51.636;4.948;2022-12-18T03:03:18;102873.34;;;6.01;56.14
59873;BME280;50750;51.636;4.948;2022-12-18T03:05:55;102871.23;;;6.00;55.99
59873;BME280;50750;51.636;4.948;2022-12-18T03:08:25;102872.81;;;6.01;56.00
59873;BME280;50750;51.636;4.948;2022-12-18T03:11:00;102874.02;;;6.01;56.18
59873;BME280;50750;51.636;4.948;2022-12-18T03:13:33;102873.85;;;6.00;56.04
59873;BME280;50750;51.636;4.948;2022-12-18T03:16:01;102871.24;;;6.00;56.13
59873;BME280;50750;51.636;4.948;2022-12-18T03:18:36;102870.18;;;6.00;56.12
59873;BME280;50750;51.636;4.948;2022-12-18T03:21:05;102869.50;;;6.00;56.06
59873;BME280;50750;51.636;4.948;2022-12-18T03:23:40;102874.19;;;5.99;56.15
59873;BME280;50750;51.636;4.948;2022-12-18T03:26:11;102876.28;;;6.00;56.12
59873;BME280;50750;51.636;4.948;2022-12-18T03:28:44;102874.37;;;6.00;56.07
59873;BME280;50750;51.636;4.948;2022-12-18T03:31:12;102868.09;;;5.99;55.96
59873;BME280;50750;51.636;4.948;2022-12-18T03:33:41;102872.61;;;5.99;55.99
59873;BME280;50750;51.636;4.948;2022-12-18T03:36:08;102868.63;;;6.00;55.95
59873;BME280;50750;51.636;4.948;2022-12-18T03:38:34;102859.74;;;6.00;55.84
59873;BME280;50750;51.636;4.948;2022-12-18T03:49:07;102835.38;;;5.98;55.87
59873;BME280;50750;51.636;4.948;2022-12-18T03:54:10;102839.55;;;5.98;55.79
59873;BME280;50750;51.636;4.948;2022-12-18T03:56:41;102840.23;;;5.98;55.63
59873;BME280;50750;51.636;4.948;2022-12-18T03:59:10;102836.59;;;5.97;55.80
59873;BME280;50750;51.636;4.948;2022-12-18T04:01:41;102830.67;;;5.97;55.86
59873;BME280;50750;51.636;4.948;2022-12-18T04:04:09;102829.79;;;5.97;55.84
59873;BME280;50750;51.636;4.948;2022-12-18T04:06:37;102822.14;;;5.96;55.73
59873;BME280;50750;51.636;4.948;2022-12-18T04:09:04;102809.97;;;5.96;55.64
59873;BME280;50750;51.636;4.948;2022-12-18T04:11:30;102816.38;;;5.96;55.59
59873;BME280;50750;51.636;4.948;2022-12-18T04:13:57;102821.41;;;5.96;55.62
59873;BME280;50750;51.636;4.948;2022-12-18T04:16:25;102828.70;;;5.95;55.61
59873;BME280;50750;51.636;4.948;2022-12-18T04:18:51;102825.58;;;5.95;55.77
59873;BME280;50750;51.636;4.948;2022-12-18T04:21:17;102829.74;;;5.95;55.73
59873;BME280;50750;51.636;4.948;2022-12-18T04:23:43;102833.39;;;5.95;55.67
59873;BME280;50750;51.636;4.948;2022-12-18T04:26:09;102835.65;;;5.94;55.59
59873;BME280;50750;51.636;4.948;2022-12-18T04:28:35;102844.16;;;5.94;55.64
59873;BME280;50750;51.636;4.948;2022-12-18T04:31:01;102843.09;;;5.93;55.41
59873;BME280;50750;51.636;4.948;2022-12-18T04:33:28;102844.30;;;5.93;55.58
59873;BME280;50750;51.636;4.948;2022-12-18T04:35:54;102842.71;;;5.92;55.54
59873;BME280;50750;51.636;4.948;2022-12-18T04:38:19;102844.61;;;5.92;55.43
59873;BME280;50750;51.636;4.948;2022-12-18T04:40:45;102847.57;;;5.92;55.60
59873;BME280;50750;51.636;4.948;2022-12-18T04:43:11;102845.46;;;5.91;55.55
59873;BME280;50750;51.636;4.948;2022-12-18T04:45:37;102850.33;;;5.91;55.63
59873;BME280;50750;51.636;4.948;2022-12-18T04:48:04;102853.97;;;5.91;55.55
59873;BME280;50750;51.636;4.948;2022-12-18T04:50:30;102856.92;;;5.91;55.62
59873;BME280;50750;51.636;4.948;2022-12-18T04:52:56;102854.65;;;5.91;55.51
59873;BME280;50750;51.636;4.948;2022-12-18T04:55:26;102849.95;;;5.90;55.78
59873;BME280;50750;51.636;4.948;2022-12-18T04:57:53;102844.73;;;5.90;55.67
59873;BME280;50750;51.636;4.948;2022-12-18T05:00:19;102836.03;;;5.89;55.58
59873;BME280;50750;51.636;4.948;2022-12-18T05:02:45;102835.33;;;5.89;55.56
59873;BME280;50750;51.636;4.948;2022-12-18T05:05:11;102837.77;;;5.89;55.61
59873;BME280;50750;51.636;4.948;2022-12-18T05:07:37;102843.15;;;5.89;55.51
59873;BME280;50750;51.636;4.948;2022-12-18T05:10:03;102841.73;;;5.88;55.55
59873;BME280;50750;51.636;4.948;2022-12-18T05:12:31;102846.09;;;5.88;55.44
59873;BME280;50750;51.636;4.948;2022-12-18T05:14:57;102845.04;;;5.88;55.55
59873;BME280;50750;51.636;4.948;2022-12-18T05:17:23;102848.51;;;5.88;55.62
59873;BME280;50750;51.636;4.948;2022-12-18T05:19:48;102845.38;;;5.87;55.51
59873;BME280;50750;51.636;4.948;2022-12-18T05:22:14;102845.73;;;5.87;55.50
59873;BME280;50750;51.636;4.948;2022-12-18T05:24:40;102848.84;;;5.87;55.61
59873;BME280;50750;51.636;4.948;2022-12-18T05:27:06;102847.27;;;5.87;55.62
59873;BME280;50750;51.636;4.948;2022-12-18T05:29:32;102848.15;;;5.87;55.63
59873;BME280;50750;51.636;4.948;2022-12-18T05:31:58;102848.49;;;5.86;55.62
59873;BME280;50750;51.636;4.948;2022-12-18T05:34:24;102846.23;;;5.86;55.62
59873;BME280;50750;51.636;4.948;2022-12-18T05:36:50;102849.33;;;5.85;55.63
59873;BME280;50750;51.636;4.948;2022-12-18T05:39:16;102847.42;;;5.85;55.46
59873;BME280;50750;51.636;4.948;2022-12-18T05:41:42;102837.86;;;5.85;55.44
59873;BME280;50750;51.636;4.948;2022-12-18T05:44:08;102836.47;;;5.85;55.52
59873;BME280;50750;51.636;4.948;2022-12-18T05:46:34;102834.04;;;5.85;55.51
59873;BME280;50750;51.636;4.948;2022-12-18T05:49:00;102834.70;;;5.85;55.55
59873;BME280;50750;51.636;4.948;2022-12-18T05:51:26;102835.92;;;5.85;55.60
59873;BME280;50750;51.636;4.948;2022-12-18T05:53:53;102835.92;;;5.85;55.46
59873;BME280;50750;51.636;4.948;2022-12-18T05:56:22;102831.39;;;5.84;55.46
59873;BME280;50750;51.636;4.948;2022-12-18T05:58:51;102829.65;;;5.83;55.39
59873;BME280;50750;51.636;4.948;2022-12-18T06:01:24;102837.83;;;5.83;55.42
59873;BME280;50750;51.636;4.948;2022-12-18T06:03:50;102842.50;;;5.83;55.53
59873;BME280;50750;51.636;4.948;2022-12-18T06:06:21;102840.58;;;5.83;55.48
59873;BME280;50750;51.636;4.948;2022-12-18T06:08:48;102828.41;;;5.83;55.34
59873;BME280;50750;51.636;4.948;2022-12-18T06:11:26;102828.94;;;5.82;55.50
59873;BME280;50750;51.636;4.948;2022-12-18T06:13:53;102829.79;;;5.82;55.30
59873;BME280;50750;51.636;4.948;2022-12-18T06:16:19;102827.35;;;5.82;55.25
59873;BME280;50750;51.636;4.948;2022-12-18T06:18:45;102820.04;;;5.81;55.17
59873;BME280;50750;51.636;4.948;2022-12-18T06:21:13;102816.91;;;5.81;55.39
59873;BME280;50750;51.636;4.948;2022-12-18T06:23:38;102818.13;;;5.82;55.17
59873;BME280;50750;51.636;4.948;2022-12-18T06:26:06;102817.09;;;5.81;55.33
59873;BME280;50750;51.636;4.948;2022-12-18T06:28:32;102813.61;;;5.81;55.28
59873;BME280;50750;51.636;4.948;2022-12-18T06:30:58;102811.67;;;5.81;55.17
59873;BME280;50750;51.636;4.948;2022-12-18T06:33:27;102810.11;;;5.80;55.21
59873;BME280;50750;51.636;4.948;2022-12-18T06:35:54;102802.10;;;5.80;55.35
59873;BME280;50750;51.636;4.948;2022-12-18T06:38:25;102797.59;;;5.81;55.27
59873;BME280;50750;51.636;4.948;2022-12-18T06:40:51;102798.27;;;5.80;55.06
59873;BME280;50750;51.636;4.948;2022-12-18T06:43:17;102796.35;;;5.79;55.04
59873;BME280;50750;51.636;4.948;2022-12-18T06:45:43;102798.61;;;5.79;55.07
59873;BME280;50750;51.636;4.948;2022-12-18T06:48:09;102802.26;;;5.79;55.09
59873;BME280;50750;51.636;4.948;2022-12-18T06:50:35;102802.77;;;5.78;55.06
59873;BME280;50750;51.636;4.948;2022-12-18T06:53:01;102799.47;;;5.78;55.07
59873;BME280;50750;51.636;4.948;2022-12-18T06:55:27;102795.98;;;5.78;55.16
59873;BME280;50750;51.636;4.948;2022-12-18T06:57:53;102792.15;;;5.78;55.09
59873;BME280;50750;51.636;4.948;2022-12-18T07:00:19;102792.15;;;5.78;55.15
59873;BME280;50750;51.636;4.948;2022-12-18T07:02:45;102790.40;;;5.77;54.91
59873;BME280;50750;51.636;4.948;2022-12-18T07:05:11;102786.91;;;5.77;55.03
59873;BME280;50750;51.636;4.948;2022-12-18T07:07:37;102781.88;;;5.77;55.20
59873;BME280;50750;51.636;4.948;2022-12-18T07:10:03;102775.61;;;5.76;55.04
59873;BME280;50750;51.636;4.948;2022-12-18T07:12:29;102764.30;;;5.76;55.01
59873;BME280;50750;51.636;4.948;2022-12-18T07:14:55;102760.30;;;5.76;55.08
59873;BME280;50750;51.636;4.948;2022-12-18T07:17:21;102754.58;;;5.76;55.19
59873;BME280;50750;51.636;4.948;2022-12-18T07:19:47;102751.78;;;5.75;55.21
59873;BME280;50750;51.636;4.948;2022-12-18T07:22:13;102750.73;;;5.75;55.20
59873;BME280;50750;51.636;4.948;2022-12-18T07:24:39;102750.23;;;5.75;55.25
59873;BME280;50750;51.636;4.948;2022-12-18T07:27:05;102743.06;;;5.74;55.19
59873;BME280;50750;51.636;4.948;2022-12-18T07:29:30;102734.20;;;5.74;55.19
59873;BME280;50750;51.636;4.948;2022-12-18T07:31:56;102726.02;;;5.74;55.15
59873;BME280;50750;51.636;4.948;2022-12-18T07:34:22;102728.27;;;5.74;55.28
59873;BME280;50750;51.636;4.948;2022-12-18T07:36:48;102718.36;;;5.73;55.23
59873;BME280;50750;51.636;4.948;2022-12-18T07:39:14;102711.05;;;5.73;55.20
59873;BME280;50750;51.636;4.948;2022-12-18T07:41:40;102706.71;;;5.73;55.19
59873;BME280;50750;51.636;4.948;2022-12-18T07:44:12;102702.37;;;5.73;55.28
59873;BME280;50750;51.636;4.948;2022-12-18T07:46:38;102699.40;;;5.72;55.14
59873;BME280;50750;51.636;4.948;2022-12-18T07:49:04;102699.04;;;5.72;55.20
59873;BME280;50750;51.636;4.948;2022-12-18T07:51:30;102705.48;;;5.73;55.24
59873;BME280;50750;51.636;4.948;2022-12-18T07:53:56;102716.41;;;5.72;55.31
59873;BME280;50750;51.636;4.948;2022-12-18T07:56:22;102717.61;;;5.72;55.20
59873;BME280;50750;51.636;4.948;2022-12-18T07:58:48;102718.68;;;5.72;55.11
59873;BME280;50750;51.636;4.948;2022-12-18T08:01:14;102717.10;;;5.72;55.10
59873;BME280;50750;51.636;4.948;2022-12-18T08:03:40;102710.50;;;5.72;54.88
59873;BME280;50750;51.636;4.948;2022-12-18T08:06:07;102708.23;;;5.72;55.15
59873;BME280;50750;51.636;4.948;2022-12-18T08:08:34;102712.74;;;5.71;54.91
59873;BME280;50750;51.636;4.948;2022-12-18T08:11:01;102711.17;;;5.71;54.98
59873;BME280;50750;51.636;4.948;2022-12-18T08:13:28;102707.70;;;5.70;54.89
59873;BME280;50750;51.636;4.948;2022-12-18T08:16:20;102715.17;;;5.70;54.94
59873;BME280;50750;51.636;4.948;2022-12-18T08:18:47;102714.98;;;5.70;55.08
59873;BME280;50750;51.636;4.948;2022-12-18T08:21:14;102708.92;;;5.70;54.92
59873;BME280;50750;51.636;4.948;2022-12-18T08:23:41;102701.09;;;5.70;54.95
59873;BME280;50750;51.636;4.948;2022-12-18T08:26:08;102702.14;;;5.70;54.97
59873;BME280;50750;51.636;4.948;2022-12-18T08:28:34;102703.52;;;5.69;54.86
59873;BME280;50750;51.636;4.948;2022-12-18T08:31:00;102703.69;;;5.70;55.12
59873;BME280;50750;51.636;4.948;2022-12-18T08:33:27;102701.60;;;5.70;54.97
59873;BME280;50750;51.636;4.948;2022-12-18T08:35:53;102697.25;;;5.70;54.90
59873;BME280;50750;51.636;4.948;2022-12-18T08:38:19;102696.05;;;5.70;55.06
59873;BME280;50750;51.636;4.948;2022-12-18T08:40:45;102688.40;;;5.70;55.00
59873;BME280;50750;51.636;4.948;2022-12-18T08:43:11;102679.16;;;5.69;55.04
59873;BME280;50750;51.636;4.948;2022-12-18T08:45:56;102677.60;;;5.69;54.88
59873;BME280;50750;51.636;4.948;2022-12-18T08:48:22;102685.77;;;5.69;55.06
59873;BME280;50750;51.636;4.948;2022-12-18T08:50:55;102691.50;;;5.69;54.88
59873;BME280;50750;51.636;4.948;2022-12-18T08:53:25;102693.06;;;5.68;54.96
59873;BME280;50750;51.636;4.948;2022-12-18T08:55:51;102700.36;;;5.69;55.10
59873;BME280;50750;51.636;4.948;2022-12-18T08:58:17;102714.95;;;5.68;55.15
59873;BME280;50750;51.636;4.948;2022-12-18T09:00:43;102722.41;;;5.67;55.03
59873;BME280;50750;51.636;4.948;2022-12-18T09:03:16;102721.55;;;5.68;55.05
59873;BME280;50750;51.636;4.948;2022-12-18T09:05:43;102721.02;;;5.68;55.00
59873;BME280;50750;51.636;4.948;2022-12-18T09:08:09;102722.08;;;5.68;55.12
59873;BME280;50750;51.636;4.948;2022-12-18T09:10:42;102716.33;;;5.67;55.03
59873;BME280;50750;51.636;4.948;2022-12-18T09:13:10;102711.63;;;5.67;55.24
59873;BME280;50750;51.636;4.948;2022-12-18T09:15:43;102709.20;;;5.67;55.08
59873;BME280;50750;51.636;4.948;2022-12-18T09:18:11;102704.66;;;5.67;55.10
59873;BME280;50750;51.636;4.948;2022-12-18T09:20:38;102703.28;;;5.67;55.15
59873;BME280;50750;51.636;4.948;2022-12-18T09:23:05;102712.85;;;5.67;55.17
59873;BME280;50750;51.636;4.948;2022-12-18T09:25:32;102711.45;;;5.67;55.32
59873;BME280;50750;51.636;4.948;2022-12-18T09:27:59;102699.27;;;5.67;55.33
59873;BME280;50750;51.636;4.948;2022-12-18T09:30:26;102686.60;;;5.67;55.11
59873;BME280;50750;51.636;4.948;2022-12-18T09:32:52;102672.84;;;5.67;55.18
59873;BME280;50750;51.636;4.948;2022-12-18T09:35:19;102673.20;;;5.67;55.02
59873;BME280;50750;51.636;4.948;2022-12-18T09:37:45;102673.73;;;5.67;55.16
59873;BME280;50750;51.636;4.948;2022-12-18T09:40:18;102679.64;;;5.67;55.19
59873;BME280;50750;51.636;4.948;2022-12-18T09:42:50;102679.13;;;5.67;55.12
59873;BME280;50750;51.636;4.948;2022-12-18T09:45:18;102671.65;;;5.67;55.00
59873;BME280;50750;51.636;4.948;2022-12-18T09:47:45;102669.93;;;5.68;54.98
59873;BME280;50750;51.636;4.948;2022-12-18T09:50:23;102676.89;;;5.68;55.00
59873;BME280;50750;51.636;4.948;2022-12-18T09:52:53;102687.30;;;5.68;55.04
59873;BME280;50750;51.636;4.948;2022-12-18T09:55:40;102696.52;;;5.68;55.21
59873;BME280;50750;51.636;4.948;2022-12-18T09:58:17;102694.10;;;5.69;55.03
59873;BME280;50750;51.636;4.948;2022-12-18T10:00:45;102688.04;;;5.69;54.77
59873;BME280;50750;51.636;4.948;2022-12-18T10:03:15;102682.11;;;5.69;54.97
59873;BME280;50750;51.636;4.948;2022-12-18T10:05:44;102680.20;;;5.69;55.00
59873;BME280;50750;51.636;4.948;2022-12-18T10:10:53;102682.32;;;5.70;55.08
59873;BME280;50750;51.636;4.948;2022-12-18T10:13:23;102686.48;;;5.70;54.93
59873;BME280;50750;51.636;4.948;2022-12-18T10:21:16;102652.77;;;5.70;54.97
59873;BME280;50750;51.636;4.948;2022-12-18T10:26:13;102641.45;;;5.70;54.99
59873;BME280;50750;51.636;4.948;2022-12-18T10:28:40;102634.16;;;5.70;55.01
59873;BME280;50750;51.636;4.948;2022-12-18T10:31:12;102625.84;;;5.70;55.13
59873;BME280;50750;51.636;4.948;2022-12-18T10:33:40;102622.89;;;5.71;55.07
59873;BME280;50750;51.636;4.948;2022-12-18T10:36:07;102617.48;;;5.70;55.08
59873;BME280;50750;51.636;4.948;2022-12-18T10:38:33;102616.64;;;5.71;55.08
59873;BME280;50750;51.636;4.948;2022-12-18T10:41:04;102617.85;;;5.71;54.93
59873;BME280;50750;51.636;4.948;2022-12-18T10:43:35;102616.29;;;5.72;55.10
59873;BME280;50750;51.636;4.948;2022-12-18T10:48:55;102613.00;;;5.72;55.10
59873;BME280;50750;51.636;4.948;2022-12-18T10:54:15;102603.95;;;5.72;55.05
59873;BME280;50750;51.636;4.948;2022-12-18T10:56:42;102609.17;;;5.72;55.22
59873;BME280;50750;51.636;4.948;2022-12-18T10:59:10;102611.77;;;5.71;55.14
59873;BME280;50750;51.636;4.948;2022-12-18T11:01:52;102607.45;;;5.72;55.14
59873;BME280;50750;51.636;4.948;2022-12-18T11:06:57;102596.50;;;5.73;55.21
59873;BME280;50750;51.636;4.948;2022-12-18T11:09:37;102595.79;;;5.72;55.14
59873;BME280;50750;51.636;4.948;2022-12-18T11:12:14;102594.76;;;5.72;55.16
59873;BME280;50750;51.636;4.948;2022-12-18T11:14:53;102589.02;;;5.73;55.08
59873;BME280;50750;51.636;4.948;2022-12-18T11:17:28;102579.81;;;5.73;55.21
59873;BME280;50750;51.636;4.948;2022-12-18T11:20:01;102577.73;;;5.73;55.04
59873;BME280;50750;51.636;4.948;2022-12-18T11:22:29;102580.52;;;5.73;55.08
59873;BME280;50750;51.636;4.948;2022-12-18T11:25:34;102583.48;;;5.73;55.14
59873;BME280;50750;51.636;4.948;2022-12-18T11:27:59;102586.95;;;5.74;54.81
59873;BME280;50750;51.636;4.948;2022-12-18T11:30:34;102591.84;;;5.74;55.16
59873;BME280;50750;51.636;4.948;2022-12-18T11:33:14;102588.71;;;5.74;55.09
59873;BME280;50750;51.636;4.948;2022-12-18T11:35:55;102589.77;;;5.74;55.08
59873;BME280;50750;51.636;4.948;2022-12-18T11:39:02;102587.00;;;5.75;55.15
59873;BME280;50750;51.636;4.948;2022-12-18T11:41:26;102583.17;;;5.75;55.19
59873;BME280;50750;51.636;4.948;2022-12-18T11:44:18;102579.34;;;5.75;55.26
59873;BME280;50750;51.636;4.948;2022-12-18T11:46:52;102572.74;;;5.76;55.04
59873;BME280;50750;51.636;4.948;2022-12-18T11:49:27;102564.58;;;5.76;55.08
59873;BME280;50750;51.636;4.948;2022-12-18T11:52:06;102565.45;;;5.76;55.23
59873;BME280;50750;51.636;4.948;2022-12-18T11:54:35;102567.36;;;5.76;55.18
59873;BME280;50750;51.636;4.948;2022-12-18T11:59:56;102560.40;;;5.76;55.21
59873;BME280;50750;51.636;4.948;2022-12-18T12:11:49;102518.34;;;5.76;55.35
59873;BME280;50750;51.636;4.948;2022-12-18T12:20:09;102503.73;;;5.76;55.36
59873;BME280;50750;51.636;4.948;2022-12-18T12:22:57;102493.83;;;5.77;55.40
59873;BME280;50750;51.636;4.948;2022-12-18T12:25:29;102492.79;;;5.76;55.41
59873;BME280;50750;51.636;4.948;2022-12-18T12:31:23;102487.05;;;5.77;55.45
59873;BME280;50750;51.636;4.948;2022-12-18T12:39:28;102476.98;;;5.78;55.50
59873;BME280;50750;51.636;4.948;2022-12-18T12:41:56;102478.73;;;5.78;55.42
59873;BME280;50750;51.636;4.948;2022-12-18T12:44:45;102483.27;;;5.78;55.45
59873;BME280;50750;51.636;4.948;2022-12-18T12:47:19;102480.65;;;5.78;55.44
59873;BME280;50750;51.636;4.948;2022-12-18T12:49:47;102476.14;;;5.79;55.52
59873;BME280;50750;51.636;4.948;2022-12-18T12:52:38;102475.45;;;5.79;55.57
59873;BME280;50750;51.636;4.948;2022-12-18T12:55:06;102475.11;;;5.79;55.44
59873;BME280;50750;51.636;4.948;2022-12-18T12:57:41;102474.75;;;5.80;55.60
59873;BME280;50750;51.636;4.948;2022-12-18T13:00:13;102467.63;;;5.80;55.71
59873;BME280;50750;51.636;4.948;2022-12-18T13:08:30;102452.35;;;5.81;55.55
59873;BME280;50750;51.636;4.948;2022-12-18T13:10:58;102457.06;;;5.81;55.64
59873;BME280;50750;51.636;4.948;2022-12-18T13:13:52;102458.27;;;5.81;55.48
59873;BME280;50750;51.636;4.948;2022-12-18T13:16:22;102456.89;;;5.81;55.44
59873;BME280;50750;51.636;4.948;2022-12-18T13:18:50;102453.59;;;5.81;55.41
59873;BME280;50750;51.636;4.948;2022-12-18T13:21:24;102451.15;;;5.81;55.54
59873;BME280;50750;51.636;4.948;2022-12-18T13:23:53;102447.14;;;5.81;55.51
59873;BME280;50750;51.636;4.948;2022-12-18T13:34:20;102433.06;;;5.81;55.41
59873;BME280;50750;51.636;4.948;2022-12-18T13:36:46;102431.52;;;5.81;55.52
59873;BME280;50750;51.636;4.948;2022-12-18T13:41:46;102424.88;;;5.80;55.56
59873;BME280;50750;51.636;4.948;2022-12-18T13:46:49;102422.60;;;5.79;55.38
59873;BME280;50750;51.636;4.948;2022-12-18T13:51:55;102402.94;;;5.78;55.43
59873;BME280;50750;51.636;4.948;2022-12-18T13:54:33;102402.25;;;5.78;55.49
59873;BME280;50750;51.636;4.948;2022-12-18T13:57:01;102402.41;;;5.77;55.47
59873;BME280;50750;51.636;4.948;2022-12-18T13:59:39;102405.71;;;5.77;55.51
59873;BME280;50750;51.636;4.948;2022-12-18T14:02:16;102405.19;;;5.78;55.48
59873;BME280;50750;51.636;4.948;2022-12-18T14:04:46;102403.27;;;5.77;55.41
59873;BME280;50750;51.636;4.948;2022-12-18T14:07:16;102401.19;;;5.77;55.30
59873;BME280;50750;51.636;4.948;2022-12-18T14:09:46;102400.81;;;5.74;55.06
59873;BME280;50750;51.636;4.948;2022-12-18T14:12:20;102407.39;;;5.73;55.19
59873;BME280;50750;51.636;4.948;2022-12-18T14:15:20;102407.04;;;5.72;55.21
59873;BME280;50750;51.636;4.948;2022-12-18T14:17:51;102398.51;;;5.72;55.25
59873;BME280;50750;51.636;4.948;2022-12-18T14:20:18;102402.85;;;5.72;55.44
59873;BME280;50750;51.636;4.948;2022-12-18T14:22:46;102407.89;;;5.71;55.55
59873;BME280;50750;51.636;4.948;2022-12-18T14:27:46;102409.83;;;5.72;55.65
59873;BME280;50750;51.636;4.948;2022-12-18T14:30:36;102402.36;;;5.73;55.57
59873;BME280;50750;51.636;4.948;2022-12-18T14:33:09;102398.70;;;5.73;55.51
59873;BME280;50750;51.636;4.948;2022-12-18T14:35:39;102395.59;;;5.73;55.52
59873;BME280;50750;51.636;4.948;2022-12-18T14:38:32;102394.55;;;5.74;55.59
59873;BME280;50750;51.636;4.948;2022-12-18T14:41:01;102391.76;;;5.74;55.64
59873;BME280;50750;51.636;4.948;2022-12-18T14:43:31;102390.89;;;5.74;55.53
59873;BME280;50750;51.636;4.948;2022-12-18T14:45:57;102391.60;;;5.74;55.59
59873;BME280;50750;51.636;4.948;2022-12-18T14:48:44;102384.98;;;5.74;55.61
59873;BME280;50750;51.636;4.948;2022-12-18T14:51:19;102383.77;;;5.74;55.61
59873;BME280;50750;51.636;4.948;2022-12-18T14:53:48;102374.20;;;5.74;55.45
59873;BME280;50750;51.636;4.948;2022-12-18T14:58:51;102358.93;;;5.75;55.46
59873;BME280;50750;51.636;4.948;2022-12-18T15:01:23;102353.70;;;5.74;55.58
59873;BME280;50750;51.636;4.948;2022-12-18T15:03:51;102351.79;;;5.74;55.53